Stratton, CO (80836)

5:07 PM MDT on September 20, 2019 (GMT -0600)
Vona | | Change Station

Elev 4514 ft 39.30 °N, 102.75 °W | Updated 11 seconds ago

Clear
Clear
87.3 °F
Feels Like 84 °F
N
5.8
Wind Variable Wind from WSW
Gusts 10.3 mph

Today
High -- | Low -- °F
--% Chance of Precip.
Yesterday
High -- | Low -- °F
Precip. -- in
Pressure 29.58 in
Visibility 10.0 miles
Clouds Few 9000 ft
Scattered Clouds 12000 ft
Heat Index 84 °F
Dew Point 39 °F
Humidity 18%
Rainfall 0.00 in
Snow Depth Not available.
6:36 AM 6:50 PM
Waning Gibbous, 62% visible
METAR KITR 202253Z AUTO 16018G30KT 10SM FEW090 SCT120 31/12 A2977 RMK AO2 PK WND 17035/2201 SLP017 T03060117
Pressure 29.58 in
Visibility 10.0 miles
Clouds Few 9000 ft
Scattered Clouds 12000 ft
Heat Index 84 °F
Dew Point 39 °F
Humidity 18%
Rainfall 0.00 in
Snow Depth Not available.
6:36 AM 6:50 PM
Waning Gibbous, 62% visible
METAR KITR 202253Z AUTO 16018G30KT 10SM FEW090 SCT120 31/12 A2977 RMK AO2 PK WND 17035/2201 SLP017 T03060117

Get Severe Weather Alerts

Thanks for signing up!

Be on the lookout for a verification email in your inbox.

You'll start receiving the daily forecast at 6 AM.

×

10-Day Weather Forecast

Almanac

Astronomy

Sep. 20, 2019 Rise Set
Actual Time
Civil Twilight
Nautical Twilight
Astronomical Twilight
Moon
Length of Visible Light
Length of Day
Tomorrow will be .
, % of the Moon is Illuminated

Today's Extremes

State Highs State Lows

Community

WunderPhotos

Category 6

Welcome to Category 6. This is the collective home for Weather Underground's featured writeups by Dr. Jeff Masters (right), Bob Henson (left), Chris Burt, and other regular contributors.

Nearby

Air Quality

  Air Quality AQ Index Pollutant
Not available.

Snow Depth

Station Depth Elevation

Earthquake Activity

City Distance Mag. Time & Date
Minimum magnitude displayed is 2.5.

Coastal Water Temperatures

Place Temperature

Stations

Nearby Weather Stations

Station Location Temp. Windchill Dew Point Humidity Wind Precip. Elev Updated Type
                   

Watches & Warnings

There are currently no watches in effect.